createdAt,value
2019-05-01T00:01:31.149Z,37.53
2019-05-01T00:04:10.190Z,38.63
2019-05-01T00:06:44.251Z,39.07
2019-05-01T00:09:15.806Z,38.40
2019-05-01T00:11:46.227Z,38.17
2019-05-01T00:14:17.128Z,39.90
2019-05-01T00:16:48.216Z,39.23
2019-05-01T00:19:20.312Z,40.33
2019-05-01T00:21:51.325Z,39.80
2019-05-01T00:24:21.753Z,38.67
2019-05-01T00:26:53.124Z,40.03
2019-05-01T00:29:23.863Z,39.97
2019-05-01T00:31:54.494Z,41.27
2019-05-01T00:34:25.099Z,40.03
2019-05-01T00:36:58.788Z,38.23
2019-05-01T00:39:33.754Z,39.47
2019-05-01T00:42:04.258Z,39.73
2019-05-01T00:44:34.602Z,40.00
2019-05-01T00:47:05.237Z,38.83
2019-05-01T00:49:35.694Z,40.90
2019-05-01T00:52:06.188Z,40.20
2019-05-01T00:54:38.199Z,41.23
2019-05-01T00:57:33.788Z,40.43
2019-05-01T01:00:42.420Z,39.43
2019-05-01T01:03:02.483Z,42.27
2019-05-01T01:05:32.944Z,42.97
2019-05-01T01:08:03.421Z,43.53
2019-05-01T01:10:35.951Z,43.73
2019-05-01T01:13:06.593Z,43.10
2019-05-01T01:15:37.003Z,43.30
2019-05-01T01:18:07.568Z,42.93
2019-05-01T01:20:38.074Z,40.80
2019-05-01T01:23:08.570Z,40.80
2019-05-01T01:25:39.124Z,42.17
2019-05-01T01:28:09.760Z,43.43
2019-05-01T01:30:40.427Z,42.47
2019-05-01T01:33:10.975Z,44.73
2019-05-01T01:35:41.583Z,41.70
2019-05-01T01:38:12.145Z,44.13
2019-05-01T01:40:43.052Z,43.37
2019-05-01T01:43:30.940Z,42.77
2019-05-01T01:46:04.732Z,43.70
2019-05-01T01:48:35.600Z,43.20
2019-05-01T01:51:06.040Z,42.20
2019-05-01T01:53:36.838Z,44.37
2019-05-01T01:56:07.511Z,44.37
2019-05-01T01:58:38.286Z,44.33
2019-05-01T02:01:30.291Z,45.07
2019-05-01T02:04:05.662Z,42.73
2019-05-01T02:06:36.468Z,44.23
2019-05-01T02:09:08.695Z,46.43
2019-05-01T02:11:42.730Z,46.83
2019-05-01T02:14:13.272Z,45.97
2019-05-01T02:16:44.294Z,45.53
2019-05-01T02:19:14.713Z,43.10
2019-05-01T02:21:45.197Z,48.20
2019-05-01T02:24:15.663Z,45.87
2019-05-01T02:26:48.855Z,45.53
2019-05-01T02:29:25.059Z,45.67
2019-05-01T02:31:57.296Z,44.67
2019-05-01T02:34:29.455Z,43.80
2019-05-01T02:37:03.107Z,45.53
2019-05-01T02:39:35.349Z,44.13
2019-05-01T02:42:07.588Z,45.83
2019-05-01T02:44:44.206Z,45.10
2019-05-01T02:47:20.349Z,46.77
2019-05-01T02:49:58.410Z,44.17
2019-05-01T02:52:32.367Z,47.33
2019-05-01T02:55:06.803Z,45.80
2019-05-01T02:57:40.027Z,44.97
2019-05-01T03:00:10.859Z,47.97
2019-05-01T03:02:42.311Z,47.57
2019-05-01T03:05:13.518Z,44.43
2019-05-01T03:07:44.872Z,43.13
2019-05-01T03:10:15.477Z,46.60
2019-05-01T03:12:48.536Z,45.10
2019-05-01T03:15:23.417Z,45.67
2019-05-01T03:18:14.551Z,44.27
2019-05-01T03:21:02.596Z,47.70
2019-05-01T03:23:39.456Z,50.20
2019-05-01T03:26:10.132Z,46.10
2019-05-01T03:28:42.324Z,48.23
2019-05-01T03:31:13.215Z,47.43
2019-05-01T03:33:44.008Z,47.57
2019-05-01T03:36:15.444Z,45.57
2019-05-01T03:38:45.840Z,43.10
2019-05-01T03:41:16.226Z,46.90
2019-05-01T03:43:47.009Z,48.27
2019-05-01T03:46:18.201Z,49.67
2019-05-01T03:48:48.451Z,48.17
2019-05-01T03:51:19.235Z,47.80
2019-05-01T03:53:49.927Z,48.07
2019-05-01T03:56:21.082Z,46.20
2019-05-01T03:58:52.098Z,45.73
2019-05-01T04:01:42.672Z,44.00
2019-05-01T04:04:16.385Z,44.33
2019-05-01T04:06:47.720Z,45.93
2019-05-01T04:09:20.829Z,45.90
2019-05-01T04:11:51.058Z,44.83
2019-05-01T04:14:22.016Z,42.90
2019-05-01T04:17:00.310Z,44.53
2019-05-01T04:19:33.512Z,43.40
2019-05-01T04:22:12.329Z,45.67
2019-05-01T04:24:43.541Z,35.93
2019-05-01T04:27:20.273Z,35.77
2019-05-01T04:30:12.880Z,34.47
2019-05-01T04:32:52.612Z,32.83
2019-05-01T04:35:24.635Z,30.30
2019-05-01T04:37:59.536Z,32.03
2019-05-01T04:40:33.787Z,31.60
2019-05-01T04:43:04.598Z,29.83
2019-05-01T04:45:35.717Z,31.03
2019-05-01T04:48:06.499Z,28.60
2019-05-01T04:50:39.097Z,28.07
2019-05-01T04:53:10.714Z,28.37
2019-05-01T04:55:41.329Z,26.77
2019-05-01T04:58:12.289Z,28.53
2019-05-01T05:00:43.908Z,27.87
2019-05-01T05:03:21.496Z,26.70
2019-05-01T05:05:52.855Z,24.27
2019-05-01T05:08:23.957Z,26.33
2019-05-01T05:10:56.734Z,23.93
2019-05-01T05:13:38.707Z,23.67
2019-05-01T05:16:36.895Z,24.70
2019-05-01T05:19:07.489Z,22.87
2019-05-01T05:21:38.467Z,22.87
2019-05-01T05:24:09.131Z,23.70
2019-05-01T05:26:40.329Z,23.53
2019-05-01T05:29:11.763Z,24.00
2019-05-01T05:31:44.579Z,24.63
2019-05-01T05:34:18.186Z,23.57
2019-05-01T05:36:52.924Z,24.37
2019-05-01T05:39:31.423Z,23.43
2019-05-01T05:42:05.019Z,24.07
2019-05-01T05:44:36.153Z,23.03
2019-05-01T05:47:07.638Z,24.23
2019-05-01T05:49:41.892Z,25.33
2019-05-01T05:52:20.382Z,25.43
2019-05-01T05:55:29.882Z,26.03
2019-05-01T05:58:19.240Z,26.13
2019-05-01T06:01:14.014Z,24.50
2019-05-01T06:04:01.785Z,27.17
2019-05-01T06:06:54.353Z,26.37
2019-05-01T06:09:38.322Z,25.60
2019-05-01T06:12:19.142Z,26.13
2019-05-01T06:15:06.357Z,26.97
2019-05-01T06:17:59.086Z,29.37
2019-05-01T06:20:39.278Z,29.67
2019-05-01T06:23:35.507Z,26.37
2019-05-01T06:26:24.771Z,26.03
2019-05-01T06:29:00.637Z,27.10
2019-05-01T06:31:29.798Z,26.23
2019-05-01T06:34:01.771Z,26.33
2019-05-01T06:36:33.812Z,26.43
2019-05-01T06:39:11.782Z,26.47
2019-05-01T06:41:45.040Z,26.73
2019-05-01T06:44:22.871Z,25.33
2019-05-01T06:47:06.860Z,28.10
2019-05-01T06:50:01.270Z,25.67
2019-05-01T06:52:30.750Z,26.53
2019-05-01T06:55:04.494Z,26.87
2019-05-01T06:57:38.278Z,27.07
2019-05-01T07:00:14.942Z,28.20
2019-05-01T07:02:47.964Z,27.43
2019-05-01T07:05:20.812Z,26.27
2019-05-01T07:07:54.980Z,26.13
2019-05-01T07:10:31.453Z,24.60
2019-05-01T07:13:05.134Z,28.47
2019-05-01T07:15:36.278Z,25.17
2019-05-01T07:18:07.388Z,27.50
2019-05-01T07:20:51.339Z,26.97
2019-05-01T07:23:21.638Z,28.17
2019-05-01T07:25:52.992Z,28.20
2019-05-01T07:28:29.018Z,28.60
2019-05-01T07:31:05.200Z,27.93
2019-05-01T07:33:36.310Z,26.20
2019-05-01T07:36:14.956Z,24.47
2019-05-01T07:38:41.593Z,24.10
2019-05-01T07:41:12.765Z,23.53
2019-05-01T07:44:12.159Z,25.10
2019-05-01T07:47:01.690Z,22.80
2019-05-01T07:49:54.989Z,22.37
2019-05-01T07:52:27.965Z,25.13
2019-05-01T07:55:01.846Z,26.33
2019-05-01T07:57:34.358Z,25.87
2019-05-01T08:00:11.199Z,24.70
2019-05-01T08:02:42.748Z,25.90
2019-05-01T08:05:13.595Z,28.00
2019-05-01T08:07:44.340Z,29.23
2019-05-01T08:10:15.537Z,30.13
2019-05-01T08:12:46.234Z,28.97
2019-05-01T08:15:22.511Z,28.67
2019-05-01T08:17:54.230Z,27.70
2019-05-01T08:20:31.458Z,29.17
2019-05-01T08:23:02.190Z,30.70
2019-05-01T08:25:33.249Z,30.53
2019-05-01T08:28:11.561Z,29.70
2019-05-01T08:30:58.690Z,30.93
2019-05-01T08:33:44.724Z,31.63
2019-05-01T08:36:20.968Z,28.03
2019-05-01T08:38:51.754Z,26.87
2019-05-01T08:41:22.427Z,26.47
2019-05-01T08:43:55.732Z,29.47
2019-05-01T08:47:03.237Z,26.13
2019-05-01T08:49:41.757Z,25.90
2019-05-01T08:52:13.965Z,25.10
2019-05-01T08:54:45.370Z,26.07
2019-05-01T08:57:16.709Z,24.30
2019-05-01T08:59:48.324Z,24.07
2019-05-01T09:02:19.337Z,23.60
2019-05-01T09:05:01.605Z,22.87
2019-05-01T09:07:24.176Z,22.83
2019-05-01T09:09:55.231Z,22.67
2019-05-01T09:12:29.100Z,20.10
2019-05-01T09:15:00.701Z,20.03
2019-05-01T09:17:34.993Z,20.47
2019-05-01T09:20:06.405Z,19.63
2019-05-01T09:22:39.618Z,20.23
2019-05-01T09:25:11.992Z,20.20
2019-05-01T09:27:51.285Z,18.40
2019-05-01T09:30:28.684Z,17.47
2019-05-01T09:32:59.940Z,18.37
2019-05-01T09:35:31.593Z,16.90
2019-05-01T09:38:07.674Z,16.90
2019-05-01T09:40:38.806Z,15.80
2019-05-01T09:43:09.920Z,16.47
2019-05-01T09:45:40.776Z,16.53
2019-05-01T09:48:11.880Z,17.37
2019-05-01T09:50:46.853Z,16.50
2019-05-01T09:53:34.183Z,16.33
2019-05-01T09:56:14.378Z,17.77
2019-05-01T09:58:45.244Z,16.47
2019-05-01T10:01:16.375Z,15.40
2019-05-01T10:03:49.428Z,17.53
2019-05-01T10:06:19.954Z,18.17
2019-05-01T10:08:50.714Z,16.67
2019-05-01T10:11:21.484Z,16.80
2019-05-01T10:13:53.700Z,18.50
2019-05-01T10:16:24.479Z,17.53
2019-05-01T10:18:55.593Z,17.43
2019-05-01T10:21:27.209Z,16.80
2019-05-01T10:23:59.122Z,16.80
2019-05-01T10:26:31.615Z,17.43
2019-05-01T10:29:21.430Z,17.73
2019-05-01T10:32:02.153Z,17.10
2019-05-01T10:34:48.201Z,17.43
2019-05-01T10:37:19.063Z,17.23
2019-05-01T10:39:53.698Z,18.00
2019-05-01T10:42:22.618Z,16.70
2019-05-01T10:44:53.649Z,18.20
2019-05-01T10:47:24.877Z,16.93
2019-05-01T10:49:57.984Z,17.47
2019-05-01T10:52:28.782Z,17.00
2019-05-01T10:55:00.126Z,17.43
2019-05-01T10:57:35.045Z,18.00
2019-05-01T11:00:04.102Z,16.70
2019-05-01T11:02:36.559Z,17.80
2019-05-01T11:05:07.556Z,18.33
2019-05-01T11:07:38.114Z,19.67
2019-05-01T11:10:10.690Z,17.03
2019-05-01T11:12:41.461Z,19.87
2019-05-01T11:15:12.325Z,19.70
2019-05-01T11:17:44.877Z,20.03
2019-05-01T11:20:17.882Z,19.77
2019-05-01T11:22:48.618Z,20.53
2019-05-01T11:25:20.913Z,21.00
2019-05-01T11:27:52.077Z,21.10
2019-05-01T11:30:23.137Z,20.67
2019-05-01T11:33:00.430Z,21.90
2019-05-01T11:35:49.913Z,21.87
2019-05-01T11:38:42.851Z,22.53
2019-05-01T11:41:23.947Z,22.10
2019-05-01T11:43:55.018Z,23.90
2019-05-01T11:46:26.156Z,24.43
2019-05-01T11:48:57.323Z,24.67
2019-05-01T11:51:28.467Z,26.10
2019-05-01T11:54:02.027Z,25.50
2019-05-01T11:56:31.652Z,25.57
2019-05-01T11:59:02.520Z,25.33
2019-05-01T12:01:35.273Z,26.43
2019-05-01T12:04:06.406Z,25.70
2019-05-01T12:06:37.357Z,26.40
2019-05-01T12:09:08.584Z,27.23
2019-05-01T12:11:41.559Z,25.83
2019-05-01T12:14:12.166Z,24.37
2019-05-01T12:17:03.372Z,25.33
2019-05-01T12:19:37.335Z,23.50
2019-05-01T12:22:08.060Z,21.20
2019-05-01T12:24:38.770Z,22.57
2019-05-01T12:27:09.861Z,21.63
2019-05-01T12:29:40.785Z,22.77
2019-05-01T12:32:11.620Z,20.50
2019-05-01T12:34:42.458Z,20.20
2019-05-01T12:37:22.050Z,16.87
2019-05-01T12:39:52.550Z,19.17
2019-05-01T12:42:24.581Z,21.80
2019-05-01T12:44:55.956Z,18.37
2019-05-01T12:47:57.535Z,18.87
2019-05-01T12:50:28.178Z,17.67
2019-05-01T12:53:23.420Z,19.70
2019-05-01T12:56:16.204Z,18.00
2019-05-01T12:58:48.401Z,16.77
2019-05-01T13:01:19.201Z,18.07
2019-05-01T13:03:49.918Z,16.50
2019-05-01T13:06:20.610Z,19.13
2019-05-01T13:08:51.560Z,18.17
2019-05-01T13:11:22.208Z,16.83
2019-05-01T13:13:53.201Z,16.60
2019-05-01T13:16:23.999Z,16.50
2019-05-01T13:18:54.971Z,16.90
2019-05-01T13:21:25.752Z,16.03
2019-05-01T13:23:56.618Z,17.27
2019-05-01T13:26:51.042Z,16.00
2019-05-01T13:29:35.656Z,16.70
2019-05-01T13:32:43.646Z,18.40
2019-05-01T13:35:14.720Z,17.10
2019-05-01T13:37:45.983Z,17.83
2019-05-01T13:40:19.096Z,16.63
2019-05-01T13:42:49.667Z,17.03
2019-05-01T13:45:20.646Z,17.83
2019-05-01T13:47:54.264Z,19.23
2019-05-01T13:50:25.040Z,17.33
2019-05-01T13:52:56.452Z,19.40
2019-05-01T13:55:28.125Z,17.93
2019-05-01T13:57:58.821Z,18.60
2019-05-01T14:00:29.870Z,19.20
2019-05-01T14:03:02.991Z,18.90
2019-05-01T14:05:33.655Z,19.17
2019-05-01T14:08:04.575Z,19.90
2019-05-01T14:10:35.745Z,18.67
2019-05-01T14:13:06.901Z,18.47
2019-05-01T14:15:39.091Z,19.00
2019-05-01T14:18:09.845Z,20.70
2019-05-01T14:20:52.989Z,18.23
2019-05-01T14:24:01.247Z,19.63
2019-05-01T14:26:33.778Z,17.07
2019-05-01T14:29:05.042Z,18.23
2019-05-01T14:31:35.906Z,22.33
2019-05-01T14:34:06.868Z,28.47
2019-05-01T14:36:37.536Z,22.03
2019-05-01T14:39:09.019Z,23.73
2019-05-01T14:41:40.105Z,25.43
2019-05-01T14:44:12.520Z,40.17
2019-05-01T14:46:43.256Z,26.70
2019-05-01T14:49:14.023Z,19.77
2019-05-01T14:51:44.644Z,34.13
2019-05-01T14:54:14.990Z,19.53
2019-05-01T14:56:45.948Z,21.70
2019-05-01T14:59:16.964Z,19.80
2019-05-01T15:01:47.736Z,20.60
2019-05-01T15:04:18.629Z,19.03
2019-05-01T15:06:49.215Z,19.73
2019-05-01T15:09:19.962Z,18.93
2019-05-01T15:11:50.472Z,17.67
2019-05-01T15:14:30.543Z,18.57
2019-05-01T15:17:13.331Z,17.87
2019-05-01T15:19:58.733Z,20.47
2019-05-01T15:22:29.627Z,19.33
2019-05-01T15:25:00.243Z,19.63
2019-05-01T15:27:30.859Z,21.27
2019-05-01T15:30:01.730Z,20.40
2019-05-01T15:32:32.471Z,21.10
2019-05-01T15:35:03.271Z,20.63
2019-05-01T15:37:35.275Z,20.20
2019-05-01T15:40:26.470Z,19.60
2019-05-01T15:43:15.973Z,20.77
2019-05-01T15:45:46.895Z,20.30
2019-05-01T15:48:17.611Z,20.63
2019-05-01T15:50:48.457Z,19.57
2019-05-01T15:53:19.856Z,21.20
2019-05-01T15:55:50.660Z,20.97
2019-05-01T15:58:21.437Z,20.07
2019-05-01T16:00:52.213Z,21.10
2019-05-01T16:03:23.094Z,20.63
2019-05-01T16:05:53.973Z,20.17
2019-05-01T16:08:24.951Z,20.53
2019-05-01T16:11:10.974Z,21.10
2019-05-01T16:13:42.000Z,20.33
2019-05-01T16:16:12.632Z,21.30
2019-05-01T16:18:43.588Z,22.60
2019-05-01T16:21:16.475Z,20.40
2019-05-01T16:23:47.182Z,22.30
2019-05-01T16:26:18.379Z,22.03
2019-05-01T16:28:49.623Z,22.70
2019-05-01T16:31:20.982Z,21.63
2019-05-01T16:33:52.048Z,22.23
2019-05-01T16:36:22.957Z,22.47
2019-05-01T16:39:10.148Z,21.90
2019-05-01T16:41:41.985Z,22.20
2019-05-01T16:44:13.652Z,21.20
2019-05-01T16:46:44.920Z,20.70
2019-05-01T16:49:16.537Z,22.23
2019-05-01T16:51:51.217Z,21.87
2019-05-01T16:54:22.797Z,20.83
2019-05-01T16:56:54.092Z,22.10
2019-05-01T16:59:24.986Z,21.30
2019-05-01T17:02:14.051Z,21.23
2019-05-01T17:04:56.237Z,22.63
2019-05-01T17:07:39.840Z,21.27
2019-05-01T17:10:14.750Z,19.87
2019-05-01T17:12:54.222Z,21.37
2019-05-01T17:15:41.474Z,22.23
2019-05-01T17:18:13.174Z,21.07
2019-05-01T17:20:44.848Z,22.77
2019-05-01T17:23:17.036Z,22.20
2019-05-01T17:25:48.499Z,21.90
2019-05-01T17:28:19.882Z,21.97
2019-05-01T17:30:58.761Z,21.87
2019-05-01T17:33:32.958Z,20.87
2019-05-01T17:36:04.263Z,22.00
2019-05-01T17:38:49.025Z,22.00
2019-05-01T17:41:10.555Z,21.57
2019-05-01T17:43:49.370Z,22.77
2019-05-01T17:46:18.055Z,21.07
2019-05-01T17:48:49.156Z,22.07
2019-05-01T17:51:20.495Z,21.50
2019-05-01T17:53:51.765Z,22.27
2019-05-01T17:56:28.276Z,22.60
2019-05-01T17:58:57.354Z,22.40
2019-05-01T18:01:39.861Z,21.63
2019-05-01T18:04:22.636Z,23.57
2019-05-01T18:06:53.851Z,22.57
2019-05-01T18:09:25.128Z,22.43
2019-05-01T18:11:55.922Z,22.30
2019-05-01T18:14:26.981Z,23.43
2019-05-01T18:16:58.067Z,21.83
2019-05-01T18:19:29.031Z,23.43
2019-05-01T18:22:09.434Z,22.27
2019-05-01T18:25:07.677Z,21.70
2019-05-01T18:27:55.744Z,22.07
2019-05-01T18:30:31.963Z,22.60
2019-05-01T18:33:03.178Z,22.10
2019-05-01T18:35:52.215Z,22.30
2019-05-01T18:38:43.053Z,22.07
2019-05-01T18:41:32.844Z,23.00
2019-05-01T18:44:05.191Z,22.53
2019-05-01T18:46:36.092Z,21.10
2019-05-01T18:49:06.662Z,22.57
2019-05-01T18:51:40.785Z,21.37
2019-05-01T18:54:09.095Z,21.77
2019-05-01T18:56:39.568Z,19.70
2019-05-01T18:59:10.039Z,20.03
2019-05-01T19:01:43.933Z,20.30
2019-05-01T19:04:18.537Z,19.37
2019-05-01T19:06:47.164Z,19.13
2019-05-01T19:09:29.347Z,20.03
2019-05-01T19:11:49.710Z,18.63
2019-05-01T19:14:23.498Z,20.77
2019-05-01T19:16:52.951Z,18.33
2019-05-01T19:19:23.269Z,19.23
2019-05-01T19:21:53.751Z,19.77
2019-05-01T19:24:24.666Z,18.13
2019-05-01T19:26:55.225Z,19.90
2019-05-01T19:29:26.669Z,18.57
2019-05-01T19:31:59.771Z,17.47
2019-05-01T19:34:30.243Z,17.87
2019-05-01T19:37:00.655Z,18.53
2019-05-01T19:39:42.881Z,17.50
2019-05-01T19:42:03.415Z,17.80
2019-05-01T19:44:33.966Z,17.13
2019-05-01T19:47:07.494Z,17.73
2019-05-01T19:49:36.561Z,18.40
2019-05-01T19:52:07.563Z,18.07
2019-05-01T19:54:38.191Z,17.97
2019-05-01T19:57:08.557Z,18.60
2019-05-01T19:59:38.988Z,19.63
2019-05-01T20:02:11.189Z,18.83
2019-05-01T20:04:45.292Z,19.77
2019-05-01T20:07:19.747Z,17.37
2019-05-01T20:09:56.746Z,18.67
2019-05-01T20:12:20.898Z,17.80
2019-05-01T20:14:51.283Z,17.97
2019-05-01T20:17:21.661Z,18.43
2019-05-01T20:19:52.088Z,18.50
2019-05-01T20:22:22.445Z,19.30
2019-05-01T20:24:52.843Z,19.13
2019-05-01T20:27:23.363Z,19.50
2019-05-01T20:29:55.536Z,20.40
2019-05-01T20:32:27.920Z,18.97
2019-05-01T20:34:59.409Z,18.03
2019-05-01T20:37:29.933Z,19.10
2019-05-01T20:40:11.026Z,18.03
2019-05-01T20:42:32.570Z,19.00
2019-05-01T20:45:05.471Z,18.50
2019-05-01T20:47:40.023Z,20.07
2019-05-01T20:50:08.573Z,19.90
2019-05-01T20:52:38.928Z,19.37
2019-05-01T20:55:09.475Z,18.73
2019-05-01T20:57:41.820Z,18.53
2019-05-01T21:00:16.511Z,18.60
2019-05-01T21:02:47.014Z,19.97
2019-05-01T21:05:38.716Z,19.57
2019-05-01T21:08:13.098Z,18.97
2019-05-01T21:10:53.868Z,18.23
2019-05-01T21:13:25.098Z,19.30
2019-05-01T21:15:56.470Z,18.93
2019-05-01T21:18:28.186Z,18.37
2019-05-01T21:20:58.590Z,20.77
2019-05-01T21:23:31.127Z,21.23
2019-05-01T21:26:01.481Z,21.97
2019-05-01T21:28:33.934Z,19.67
2019-05-01T21:31:04.059Z,18.97
2019-05-01T21:33:34.464Z,19.87
2019-05-01T21:36:08.447Z,19.60
2019-05-01T21:38:36.991Z,18.77
2019-05-01T21:41:07.347Z,18.37
2019-05-01T21:43:37.750Z,19.77
2019-05-01T21:46:08.362Z,16.90
2019-05-01T21:48:38.695Z,19.43
2019-05-01T21:51:09.045Z,19.30
2019-05-01T21:53:42.791Z,18.83
2019-05-01T21:56:11.697Z,18.97
2019-05-01T21:58:42.163Z,17.43
2019-05-01T22:01:15.401Z,17.93
2019-05-01T22:03:45.878Z,18.33
2019-05-01T22:06:16.718Z,20.17
2019-05-01T22:08:47.149Z,17.23
2019-05-01T22:11:17.501Z,19.73
2019-05-01T22:13:48.133Z,18.50
2019-05-01T22:16:23.710Z,19.27
2019-05-01T22:19:02.298Z,19.03
2019-05-01T22:21:44.704Z,18.60
2019-05-01T22:24:22.971Z,18.87
2019-05-01T22:27:01.109Z,20.03
2019-05-01T22:29:34.194Z,17.77
2019-05-01T22:32:27.734Z,18.33
2019-05-01T22:35:21.131Z,18.00
2019-05-01T22:37:51.939Z,19.00
2019-05-01T22:40:35.596Z,17.80
2019-05-01T22:43:05.954Z,19.40
2019-05-01T22:45:36.374Z,18.50
2019-05-01T22:48:06.771Z,19.67
2019-05-01T22:50:37.172Z,17.87
2019-05-01T22:53:12.840Z,18.33
2019-05-01T22:55:40.136Z,18.60
2019-05-01T22:58:10.698Z,17.90
2019-05-01T23:00:48.239Z,18.33
2019-05-01T23:03:26.229Z,17.57
2019-05-01T23:05:56.553Z,18.43
2019-05-01T23:08:26.965Z,18.40
2019-05-01T23:10:57.461Z,18.37
2019-05-01T23:13:32.270Z,17.57
2019-05-01T23:16:02.652Z,19.43
2019-05-01T23:18:33.043Z,17.70
2019-05-01T23:21:03.644Z,19.23
2019-05-01T23:23:34.026Z,19.57
2019-05-01T23:26:05.459Z,19.17
2019-05-01T23:28:39.856Z,18.80
2019-05-01T23:31:09.720Z,18.37
2019-05-01T23:33:40.053Z,18.53
2019-05-01T23:36:22.930Z,18.70
2019-05-01T23:38:42.434Z,17.77
2019-05-01T23:41:13.107Z,18.57
2019-05-01T23:43:43.440Z,18.03
2019-05-01T23:46:13.806Z,19.50
2019-05-01T23:48:44.182Z,19.20
2019-05-01T23:51:14.641Z,19.47
2019-05-01T23:53:48.260Z,19.67
2019-05-01T23:56:17.032Z,20.30
2019-05-01T23:58:47.416Z,21.13
